sensor_id;sensor_type;location;lat;lon;timestamp;P1;durP1;ratioP1;P2;durP2;ratioP2
57800;SDS011;43627;42.728;23.256;2023-04-07T00:00:24;13.98;;;8.05;;
57800;SDS011;43627;42.728;23.256;2023-04-07T00:02:52;14.13;;;8.05;;
57800;SDS011;43627;42.728;23.256;2023-04-07T00:05:19;14.65;;;8.23;;
57800;SDS011;43627;42.728;23.256;2023-04-07T00:07:46;18.52;;;8.27;;
57800;SDS011;43627;42.728;23.256;2023-04-07T00:10:21;14.80;;;7.32;;
57800;SDS011;43627;42.728;23.256;2023-04-07T00:12:50;15.38;;;7.47;;
57800;SDS011;43627;42.728;23.256;2023-04-07T00:15:17;14.05;;;7.75;;
57800;SDS011;43627;42.728;23.256;2023-04-07T00:17:43;12.70;;;8.05;;
57800;SDS011;43627;42.728;23.256;2023-04-07T00:20:10;16.52;;;8.45;;
57800;SDS011;43627;42.728;23.256;2023-04-07T00:22:37;14.30;;;8.02;;
57800;SDS011;43627;42.728;23.256;2023-04-07T00:25:05;13.88;;;7.25;;
57800;SDS011;43627;42.728;23.256;2023-04-07T00:27:32;15.63;;;6.72;;
57800;SDS011;43627;42.728;23.256;2023-04-07T00:29:58;14.55;;;6.90;;
57800;SDS011;43627;42.728;23.256;2023-04-07T00:32:25;11.18;;;7.22;;
57800;SDS011;43627;42.728;23.256;2023-04-07T00:34:52;13.45;;;7.47;;
57800;SDS011;43627;42.728;23.256;2023-04-07T00:37:18;14.35;;;8.05;;
57800;SDS011;43627;42.728;23.256;2023-04-07T00:39:45;14.30;;;7.88;;
57800;SDS011;43627;42.728;23.256;2023-04-07T00:42:12;20.30;;;7.05;;
57800;SDS011;43627;42.728;23.256;2023-04-07T00:44:39;12.65;;;7.30;;
57800;SDS011;43627;42.728;23.256;2023-04-07T00:47:05;18.00;;;7.63;;
57800;SDS011;43627;42.728;23.256;2023-04-07T00:49:32;20.17;;;8.02;;
57800;SDS011;43627;42.728;23.256;2023-04-07T00:51:59;18.55;;;8.05;;
57800;SDS011;43627;42.728;23.256;2023-04-07T00:54:26;15.32;;;7.18;;
57800;SDS011;43627;42.728;23.256;2023-04-07T00:56:56;17.25;;;8.35;;
57800;SDS011;43627;42.728;23.256;2023-04-07T00:59:23;12.25;;;7.65;;
57800;SDS011;43627;42.728;23.256;2023-04-07T01:04:34;17.05;;;6.75;;
57800;SDS011;43627;42.728;23.256;2023-04-07T01:07:10;11.65;;;6.65;;
57800;SDS011;43627;42.728;23.256;2023-04-07T01:10:02;10.80;;;5.72;;
57800;SDS011;43627;42.728;23.256;2023-04-07T01:15:09;10.85;;;5.93;;
57800;SDS011;43627;42.728;23.256;2023-04-07T01:17:38;10.75;;;6.40;;
57800;SDS011;43627;42.728;23.256;2023-04-07T01:20:10;11.43;;;6.00;;
57800;SDS011;43627;42.728;23.256;2023-04-07T01:22:40;11.82;;;6.90;;
57800;SDS011;43627;42.728;23.256;2023-04-07T01:30:13;13.07;;;6.72;;
57800;SDS011;43627;42.728;23.256;2023-04-07T01:32:42;14.35;;;7.93;;
57800;SDS011;43627;42.728;23.256;2023-04-07T01:35:12;16.55;;;9.32;;
57800;SDS011;43627;42.728;23.256;2023-04-07T01:37:39;15.48;;;9.57;;
57800;SDS011;43627;42.728;23.256;2023-04-07T01:40:07;20.23;;;10.73;;
57800;SDS011;43627;42.728;23.256;2023-04-07T01:42:35;22.00;;;10.43;;
57800;SDS011;43627;42.728;23.256;2023-04-07T01:45:04;20.90;;;9.45;;
57800;SDS011;43627;42.728;23.256;2023-04-07T01:47:32;18.95;;;10.90;;
57800;SDS011;43627;42.728;23.256;2023-04-07T01:50:03;19.33;;;9.23;;
57800;SDS011;43627;42.728;23.256;2023-04-07T01:52:32;19.25;;;10.05;;
57800;SDS011;43627;42.728;23.256;2023-04-07T01:55:00;18.48;;;10.52;;
57800;SDS011;43627;42.728;23.256;2023-04-07T01:57:26;18.70;;;10.57;;
57800;SDS011;43627;42.728;23.256;2023-04-07T01:59:53;23.00;;;11.05;;
57800;SDS011;43627;42.728;23.256;2023-04-07T02:02:20;25.35;;;13.07;;
57800;SDS011;43627;42.728;23.256;2023-04-07T02:10:19;29.42;;;13.90;;
57800;SDS011;43627;42.728;23.256;2023-04-07T02:12:48;19.15;;;10.30;;
57800;SDS011;43627;42.728;23.256;2023-04-07T02:15:15;21.52;;;11.57;;
57800;SDS011;43627;42.728;23.256;2023-04-07T02:17:43;20.92;;;11.15;;
57800;SDS011;43627;42.728;23.256;2023-04-07T02:20:14;23.23;;;11.85;;
57800;SDS011;43627;42.728;23.256;2023-04-07T02:22:42;26.00;;;12.65;;
57800;SDS011;43627;42.728;23.256;2023-04-07T02:25:26;23.25;;;12.40;;
57800;SDS011;43627;42.728;23.256;2023-04-07T02:27:54;33.13;;;13.17;;
57800;SDS011;43627;42.728;23.256;2023-04-07T02:30:22;26.95;;;11.52;;
57800;SDS011;43627;42.728;23.256;2023-04-07T02:32:49;21.48;;;11.73;;
57800;SDS011;43627;42.728;23.256;2023-04-07T02:35:16;27.88;;;13.27;;
57800;SDS011;43627;42.728;23.256;2023-04-07T02:37:43;26.15;;;14.27;;
57800;SDS011;43627;42.728;23.256;2023-04-07T02:40:11;25.27;;;13.23;;
57800;SDS011;43627;42.728;23.256;2023-04-07T02:42:38;27.65;;;12.90;;
57800;SDS011;43627;42.728;23.256;2023-04-07T02:45:06;29.77;;;13.57;;
57800;SDS011;43627;42.728;23.256;2023-04-07T02:47:34;29.40;;;14.93;;
57800;SDS011;43627;42.728;23.256;2023-04-07T02:50:02;24.77;;;13.82;;
57800;SDS011;43627;42.728;23.256;2023-04-07T02:52:29;35.67;;;14.60;;
57800;SDS011;43627;42.728;23.256;2023-04-07T02:54:56;27.17;;;14.73;;
57800;SDS011;43627;42.728;23.256;2023-04-07T02:57:22;26.60;;;14.57;;
57800;SDS011;43627;42.728;23.256;2023-04-07T02:59:49;29.73;;;14.50;;
57800;SDS011;43627;42.728;23.256;2023-04-07T03:02:16;32.13;;;15.18;;
57800;SDS011;43627;42.728;23.256;2023-04-07T03:04:43;23.50;;;14.05;;
57800;SDS011;43627;42.728;23.256;2023-04-07T03:07:09;28.95;;;14.60;;
57800;SDS011;43627;42.728;23.256;2023-04-07T03:09:36;17.52;;;9.65;;
57800;SDS011;43627;42.728;23.256;2023-04-07T03:12:03;27.92;;;8.70;;
57800;SDS011;43627;42.728;23.256;2023-04-07T03:14:29;10.40;;;6.05;;
57800;SDS011;43627;42.728;23.256;2023-04-07T03:16:56;12.93;;;5.75;;
57800;SDS011;43627;42.728;23.256;2023-04-07T03:19:23;12.93;;;6.53;;
57800;SDS011;43627;42.728;23.256;2023-04-07T03:21:50;12.98;;;5.70;;
57800;SDS011;43627;42.728;23.256;2023-04-07T03:24:16;11.27;;;5.45;;
57800;SDS011;43627;42.728;23.256;2023-04-07T03:26:43;11.25;;;5.38;;
57800;SDS011;43627;42.728;23.256;2023-04-07T03:29:10;13.90;;;5.90;;
57800;SDS011;43627;42.728;23.256;2023-04-07T03:31:37;12.70;;;5.25;;
57800;SDS011;43627;42.728;23.256;2023-04-07T03:34:04;10.10;;;4.75;;
57800;SDS011;43627;42.728;23.256;2023-04-07T03:36:30;11.38;;;5.57;;
57800;SDS011;43627;42.728;23.256;2023-04-07T03:38:58;10.38;;;5.65;;
57800;SDS011;43627;42.728;23.256;2023-04-07T03:41:25;10.70;;;4.90;;
57800;SDS011;43627;42.728;23.256;2023-04-07T03:43:51;11.80;;;5.40;;
57800;SDS011;43627;42.728;23.256;2023-04-07T03:46:19;12.38;;;5.40;;
57800;SDS011;43627;42.728;23.256;2023-04-07T03:48:46;7.97;;;4.20;;
57800;SDS011;43627;42.728;23.256;2023-04-07T03:51:14;9.32;;;4.63;;
57800;SDS011;43627;42.728;23.256;2023-04-07T03:53:41;9.98;;;5.35;;
57800;SDS011;43627;42.728;23.256;2023-04-07T03:56:08;11.80;;;5.13;;
57800;SDS011;43627;42.728;23.256;2023-04-07T03:58:34;9.25;;;4.80;;
57800;SDS011;43627;42.728;23.256;2023-04-07T04:01:01;9.55;;;4.43;;
57800;SDS011;43627;42.728;23.256;2023-04-07T04:03:28;12.35;;;4.43;;
57800;SDS011;43627;42.728;23.256;2023-04-07T04:05:55;9.57;;;5.53;;
57800;SDS011;43627;42.728;23.256;2023-04-07T04:08:22;14.20;;;7.60;;
57800;SDS011;43627;42.728;23.256;2023-04-07T04:10:49;21.77;;;10.18;;
57800;SDS011;43627;42.728;23.256;2023-04-07T04:13:16;26.15;;;10.43;;
57800;SDS011;43627;42.728;23.256;2023-04-07T04:15:43;23.23;;;11.50;;
57800;SDS011;43627;42.728;23.256;2023-04-07T04:18:09;27.02;;;13.20;;
57800;SDS011;43627;42.728;23.256;2023-04-07T04:20:36;21.75;;;10.80;;
57800;SDS011;43627;42.728;23.256;2023-04-07T04:23:03;24.92;;;11.52;;
57800;SDS011;43627;42.728;23.256;2023-04-07T04:25:30;21.92;;;11.45;;
57800;SDS011;43627;42.728;23.256;2023-04-07T04:27:56;21.98;;;11.68;;
57800;SDS011;43627;42.728;23.256;2023-04-07T04:30:23;22.50;;;12.05;;
57800;SDS011;43627;42.728;23.256;2023-04-07T04:32:50;20.75;;;12.27;;
57800;SDS011;43627;42.728;23.256;2023-04-07T04:35:17;30.00;;;12.57;;
57800;SDS011;43627;42.728;23.256;2023-04-07T04:37:43;27.27;;;13.35;;
57800;SDS011;43627;42.728;23.256;2023-04-07T04:40:10;27.77;;;13.70;;
57800;SDS011;43627;42.728;23.256;2023-04-07T04:42:37;28.88;;;14.05;;
57800;SDS011;43627;42.728;23.256;2023-04-07T04:45:04;28.48;;;13.02;;
57800;SDS011;43627;42.728;23.256;2023-04-07T04:47:31;23.65;;;12.63;;
57800;SDS011;43627;42.728;23.256;2023-04-07T04:49:58;22.77;;;12.85;;
57800;SDS011;43627;42.728;23.256;2023-04-07T04:52:25;22.25;;;12.15;;
57800;SDS011;43627;42.728;23.256;2023-04-07T04:54:52;21.80;;;11.48;;
57800;SDS011;43627;42.728;23.256;2023-04-07T04:57:19;28.48;;;13.63;;
57800;SDS011;43627;42.728;23.256;2023-04-07T04:59:46;27.10;;;10.73;;
57800;SDS011;43627;42.728;23.256;2023-04-07T05:02:13;22.77;;;12.23;;
57800;SDS011;43627;42.728;23.256;2023-04-07T05:04:40;26.80;;;11.95;;
57800;SDS011;43627;42.728;23.256;2023-04-07T05:07:06;37.90;;;13.00;;
57800;SDS011;43627;42.728;23.256;2023-04-07T05:09:33;27.60;;;13.20;;
57800;SDS011;43627;42.728;23.256;2023-04-07T05:12:00;25.02;;;11.88;;
57800;SDS011;43627;42.728;23.256;2023-04-07T05:14:27;23.55;;;12.10;;
57800;SDS011;43627;42.728;23.256;2023-04-07T05:16:54;30.52;;;13.77;;
57800;SDS011;43627;42.728;23.256;2023-04-07T05:19:21;29.85;;;15.45;;
57800;SDS011;43627;42.728;23.256;2023-04-07T05:21:47;32.90;;;13.95;;
57800;SDS011;43627;42.728;23.256;2023-04-07T05:24:14;34.47;;;15.50;;
57800;SDS011;43627;42.728;23.256;2023-04-07T05:26:41;35.67;;;14.50;;
57800;SDS011;43627;42.728;23.256;2023-04-07T05:29:08;25.17;;;13.18;;
57800;SDS011;43627;42.728;23.256;2023-04-07T05:31:34;32.88;;;13.90;;
57800;SDS011;43627;42.728;23.256;2023-04-07T05:34:02;23.48;;;12.50;;
57800;SDS011;43627;42.728;23.256;2023-04-07T05:36:29;24.17;;;11.68;;
57800;SDS011;43627;42.728;23.256;2023-04-07T05:38:56;24.00;;;11.30;;
57800;SDS011;43627;42.728;23.256;2023-04-07T05:41:23;30.95;;;13.32;;
57800;SDS011;43627;42.728;23.256;2023-04-07T05:43:50;27.38;;;12.90;;
57800;SDS011;43627;42.728;23.256;2023-04-07T05:46:17;18.77;;;11.65;;
57800;SDS011;43627;42.728;23.256;2023-04-07T05:48:44;29.67;;;13.25;;
57800;SDS011;43627;42.728;23.256;2023-04-07T05:51:11;25.30;;;11.85;;
57800;SDS011;43627;42.728;23.256;2023-04-07T05:53:37;31.52;;;12.70;;
57800;SDS011;43627;42.728;23.256;2023-04-07T05:56:04;26.60;;;13.98;;
57800;SDS011;43627;42.728;23.256;2023-04-07T05:58:31;25.73;;;12.90;;
57800;SDS011;43627;42.728;23.256;2023-04-07T06:00:58;24.30;;;12.68;;
57800;SDS011;43627;42.728;23.256;2023-04-07T06:03:24;26.02;;;13.48;;
57800;SDS011;43627;42.728;23.256;2023-04-07T06:05:51;23.33;;;12.07;;
57800;SDS011;43627;42.728;23.256;2023-04-07T06:08:18;23.77;;;12.63;;
57800;SDS011;43627;42.728;23.256;2023-04-07T06:10:45;22.77;;;11.52;;
57800;SDS011;43627;42.728;23.256;2023-04-07T06:13:12;25.02;;;12.23;;
57800;SDS011;43627;42.728;23.256;2023-04-07T06:15:38;24.83;;;13.70;;
57800;SDS011;43627;42.728;23.256;2023-04-07T06:18:05;23.23;;;12.60;;
57800;SDS011;43627;42.728;23.256;2023-04-07T06:20:32;23.40;;;11.82;;
57800;SDS011;43627;42.728;23.256;2023-04-07T06:22:58;30.35;;;10.98;;
57800;SDS011;43627;42.728;23.256;2023-04-07T06:25:25;19.83;;;10.07;;
57800;SDS011;43627;42.728;23.256;2023-04-07T06:27:52;22.00;;;10.70;;
57800;SDS011;43627;42.728;23.256;2023-04-07T06:30:20;14.80;;;7.50;;
57800;SDS011;43627;42.728;23.256;2023-04-07T06:32:46;14.57;;;6.05;;
57800;SDS011;43627;42.728;23.256;2023-04-07T06:35:13;11.93;;;5.85;;
57800;SDS011;43627;42.728;23.256;2023-04-07T06:37:40;11.93;;;4.60;;
57800;SDS011;43627;42.728;23.256;2023-04-07T06:40:07;7.78;;;4.45;;
57800;SDS011;43627;42.728;23.256;2023-04-07T06:42:34;7.10;;;3.92;;
57800;SDS011;43627;42.728;23.256;2023-04-07T06:45:00;9.27;;;4.35;;
57800;SDS011;43627;42.728;23.256;2023-04-07T06:47:27;9.45;;;4.45;;
57800;SDS011;43627;42.728;23.256;2023-04-07T06:49:54;13.63;;;3.92;;
57800;SDS011;43627;42.728;23.256;2023-04-07T06:52:21;7.72;;;4.13;;
57800;SDS011;43627;42.728;23.256;2023-04-07T06:54:48;7.47;;;4.05;;
57800;SDS011;43627;42.728;23.256;2023-04-07T06:57:14;7.88;;;4.18;;
57800;SDS011;43627;42.728;23.256;2023-04-07T06:59:41;8.65;;;4.13;;
57800;SDS011;43627;42.728;23.256;2023-04-07T07:02:08;8.68;;;4.63;;
57800;SDS011;43627;42.728;23.256;2023-04-07T07:04:35;9.90;;;4.20;;
57800;SDS011;43627;42.728;23.256;2023-04-07T07:07:01;6.13;;;3.65;;
57800;SDS011;43627;42.728;23.256;2023-04-07T07:09:28;9.25;;;4.55;;
57800;SDS011;43627;42.728;23.256;2023-04-07T07:11:55;7.55;;;4.32;;
57800;SDS011;43627;42.728;23.256;2023-04-07T07:14:22;7.68;;;4.03;;
57800;SDS011;43627;42.728;23.256;2023-04-07T07:16:49;5.88;;;3.88;;
57800;SDS011;43627;42.728;23.256;2023-04-07T07:19:16;14.57;;;4.13;;
57800;SDS011;43627;42.728;23.256;2023-04-07T07:21:42;10.60;;;4.20;;
57800;SDS011;43627;42.728;23.256;2023-04-07T07:24:09;7.78;;;3.80;;
57800;SDS011;43627;42.728;23.256;2023-04-07T07:26:36;5.22;;;3.42;;
57800;SDS011;43627;42.728;23.256;2023-04-07T07:29:02;8.57;;;3.90;;
57800;SDS011;43627;42.728;23.256;2023-04-07T07:31:29;8.05;;;4.18;;
57800;SDS011;43627;42.728;23.256;2023-04-07T07:33:56;5.65;;;3.60;;
57800;SDS011;43627;42.728;23.256;2023-04-07T07:36:23;7.45;;;3.90;;
57800;SDS011;43627;42.728;23.256;2023-04-07T07:38:50;7.22;;;3.35;;
57800;SDS011;43627;42.728;23.256;2023-04-07T07:41:17;7.28;;;3.83;;
57800;SDS011;43627;42.728;23.256;2023-04-07T07:43:43;7.82;;;4.10;;
57800;SDS011;43627;42.728;23.256;2023-04-07T07:46:10;7.32;;;3.75;;
57800;SDS011;43627;42.728;23.256;2023-04-07T07:48:37;7.35;;;3.90;;
57800;SDS011;43627;42.728;23.256;2023-04-07T07:51:04;9.40;;;3.90;;
57800;SDS011;43627;42.728;23.256;2023-04-07T07:53:31;9.90;;;3.97;;
57800;SDS011;43627;42.728;23.256;2023-04-07T07:55:58;8.40;;;3.70;;
57800;SDS011;43627;42.728;23.256;2023-04-07T07:58:24;7.28;;;4.20;;
57800;SDS011;43627;42.728;23.256;2023-04-07T08:00:51;13.55;;;4.45;;
57800;SDS011;43627;42.728;23.256;2023-04-07T08:03:17;5.90;;;4.00;;
57800;SDS011;43627;42.728;23.256;2023-04-07T08:05:48;9.90;;;4.55;;
57800;SDS011;43627;42.728;23.256;2023-04-07T08:08:14;14.70;;;3.38;;
57800;SDS011;43627;42.728;23.256;2023-04-07T08:10:41;5.28;;;3.55;;
57800;SDS011;43627;42.728;23.256;2023-04-07T08:13:07;11.23;;;4.22;;
57800;SDS011;43627;42.728;23.256;2023-04-07T08:15:35;9.70;;;3.55;;
57800;SDS011;43627;42.728;23.256;2023-04-07T08:18:02;7.20;;;4.43;;
57800;SDS011;43627;42.728;23.256;2023-04-07T08:20:30;8.98;;;4.10;;
57800;SDS011;43627;42.728;23.256;2023-04-07T08:22:57;6.88;;;3.58;;
57800;SDS011;43627;42.728;23.256;2023-04-07T08:25:25;7.53;;;4.05;;
57800;SDS011;43627;42.728;23.256;2023-04-07T08:27:52;7.97;;;4.05;;
57800;SDS011;43627;42.728;23.256;2023-04-07T08:30:19;6.82;;;3.90;;
57800;SDS011;43627;42.728;23.256;2023-04-07T08:32:49;6.13;;;3.40;;
57800;SDS011;43627;42.728;23.256;2023-04-07T08:35:16;6.00;;;3.97;;
57800;SDS011;43627;42.728;23.256;2023-04-07T08:37:42;9.25;;;4.13;;
57800;SDS011;43627;42.728;23.256;2023-04-07T08:40:09;8.82;;;4.03;;
57800;SDS011;43627;42.728;23.256;2023-04-07T08:42:39;5.07;;;3.33;;
57800;SDS011;43627;42.728;23.256;2023-04-07T08:45:08;6.53;;;4.38;;
57800;SDS011;43627;42.728;23.256;2023-04-07T08:47:35;8.40;;;3.80;;
57800;SDS011;43627;42.728;23.256;2023-04-07T08:50:04;6.68;;;4.43;;
57800;SDS011;43627;42.728;23.256;2023-04-07T08:52:34;9.73;;;4.32;;
57800;SDS011;43627;42.728;23.256;2023-04-07T08:55:09;7.25;;;4.43;;
57800;SDS011;43627;42.728;23.256;2023-04-07T08:57:37;6.47;;;4.07;;
57800;SDS011;43627;42.728;23.256;2023-04-07T09:00:04;8.82;;;4.82;;
57800;SDS011;43627;42.728;23.256;2023-04-07T09:02:35;7.20;;;4.82;;
57800;SDS011;43627;42.728;23.256;2023-04-07T09:05:05;6.57;;;4.15;;
57800;SDS011;43627;42.728;23.256;2023-04-07T09:07:34;6.60;;;4.07;;
57800;SDS011;43627;42.728;23.256;2023-04-07T09:10:02;7.85;;;5.32;;
57800;SDS011;43627;42.728;23.256;2023-04-07T09:12:30;7.60;;;4.93;;
57800;SDS011;43627;42.728;23.256;2023-04-07T09:14:57;7.80;;;4.88;;
57800;SDS011;43627;42.728;23.256;2023-04-07T09:17:24;8.35;;;4.57;;
57800;SDS011;43627;42.728;23.256;2023-04-07T09:19:56;9.05;;;4.05;;
57800;SDS011;43627;42.728;23.256;2023-04-07T09:22:42;7.50;;;4.50;;
57800;SDS011;43627;42.728;23.256;2023-04-07T09:30:28;5.97;;;3.58;;
57800;SDS011;43627;42.728;23.256;2023-04-07T09:32:58;5.35;;;4.15;;
57800;SDS011;43627;42.728;23.256;2023-04-07T09:35:26;9.57;;;4.22;;
57800;SDS011;43627;42.728;23.256;2023-04-07T09:38:01;9.05;;;5.13;;
57800;SDS011;43627;42.728;23.256;2023-04-07T09:40:34;6.28;;;4.18;;
57800;SDS011;43627;42.728;23.256;2023-04-07T09:43:03;7.85;;;4.93;;
57800;SDS011;43627;42.728;23.256;2023-04-07T09:45:31;8.73;;;5.15;;
57800;SDS011;43627;42.728;23.256;2023-04-07T09:48:06;9.23;;;6.05;;
57800;SDS011;43627;42.728;23.256;2023-04-07T09:50:47;8.93;;;4.82;;
57800;SDS011;43627;42.728;23.256;2023-04-07T09:53:17;12.63;;;4.60;;
57800;SDS011;43627;42.728;23.256;2023-04-07T09:55:48;7.55;;;4.30;;
57800;SDS011;43627;42.728;23.256;2023-04-07T09:58:16;8.63;;;4.53;;
57800;SDS011;43627;42.728;23.256;2023-04-07T10:00:44;8.23;;;4.63;;
57800;SDS011;43627;42.728;23.256;2023-04-07T10:03:11;8.95;;;4.63;;
57800;SDS011;43627;42.728;23.256;2023-04-07T10:05:38;12.55;;;5.18;;
57800;SDS011;43627;42.728;23.256;2023-04-07T10:08:06;14.20;;;5.75;;
57800;SDS011;43627;42.728;23.256;2023-04-07T10:10:33;8.30;;;4.65;;
57800;SDS011;43627;42.728;23.256;2023-04-07T10:13:03;10.75;;;4.53;;
57800;SDS011;43627;42.728;23.256;2023-04-07T10:15:31;10.55;;;4.55;;
57800;SDS011;43627;42.728;23.256;2023-04-07T10:17:58;14.98;;;4.50;;
57800;SDS011;43627;42.728;23.256;2023-04-07T10:20:26;9.38;;;4.68;;
57800;SDS011;43627;42.728;23.256;2023-04-07T10:22:54;12.32;;;4.63;;
57800;SDS011;43627;42.728;23.256;2023-04-07T10:25:27;12.50;;;4.68;;
57800;SDS011;43627;42.728;23.256;2023-04-07T10:27:55;7.03;;;4.20;;
57800;SDS011;43627;42.728;23.256;2023-04-07T10:30:26;9.52;;;5.25;;
57800;SDS011;43627;42.728;23.256;2023-04-07T10:32:57;9.30;;;4.50;;
57800;SDS011;43627;42.728;23.256;2023-04-07T10:35:27;10.57;;;4.85;;
57800;SDS011;43627;42.728;23.256;2023-04-07T10:40:36;10.52;;;5.32;;
57800;SDS011;43627;42.728;23.256;2023-04-07T10:43:03;8.60;;;4.57;;
57800;SDS011;43627;42.728;23.256;2023-04-07T10:48:14;9.13;;;5.10;;
57800;SDS011;43627;42.728;23.256;2023-04-07T10:50:43;8.45;;;4.38;;
57800;SDS011;43627;42.728;23.256;2023-04-07T10:53:30;8.32;;;5.22;;
57800;SDS011;43627;42.728;23.256;2023-04-07T10:55:57;6.90;;;4.93;;
57800;SDS011;43627;42.728;23.256;2023-04-07T10:58:27;6.28;;;4.45;;
57800;SDS011;43627;42.728;23.256;2023-04-07T11:03:23;10.65;;;5.45;;
57800;SDS011;43627;42.728;23.256;2023-04-07T11:05:51;8.10;;;4.78;;
57800;SDS011;43627;42.728;23.256;2023-04-07T11:11:02;18.85;;;5.30;;
57800;SDS011;43627;42.728;23.256;2023-04-07T11:16:07;7.90;;;5.05;;
57800;SDS011;43627;42.728;23.256;2023-04-07T11:18:35;9.30;;;5.43;;
57800;SDS011;43627;42.728;23.256;2023-04-07T11:21:02;8.70;;;5.03;;
57800;SDS011;43627;42.728;23.256;2023-04-07T11:23:41;11.25;;;4.97;;
57800;SDS011;43627;42.728;23.256;2023-04-07T11:26:12;9.10;;;4.85;;
57800;SDS011;43627;42.728;23.256;2023-04-07T11:28:46;10.68;;;5.65;;
57800;SDS011;43627;42.728;23.256;2023-04-07T11:31:35;10.05;;;4.80;;
57800;SDS011;43627;42.728;23.256;2023-04-07T11:34:02;13.07;;;6.38;;
57800;SDS011;43627;42.728;23.256;2023-04-07T11:36:34;10.00;;;5.43;;
57800;SDS011;43627;42.728;23.256;2023-04-07T11:39:03;9.95;;;6.10;;
57800;SDS011;43627;42.728;23.256;2023-04-07T11:41:31;9.77;;;5.47;;
57800;SDS011;43627;42.728;23.256;2023-04-07T11:44:02;12.50;;;5.80;;
57800;SDS011;43627;42.728;23.256;2023-04-07T11:46:36;11.80;;;6.13;;
57800;SDS011;43627;42.728;23.256;2023-04-07T11:49:25;8.25;;;5.32;;
57800;SDS011;43627;42.728;23.256;2023-04-07T11:52:00;8.27;;;5.75;;
57800;SDS011;43627;42.728;23.256;2023-04-07T11:57:09;9.27;;;5.47;;
57800;SDS011;43627;42.728;23.256;2023-04-07T11:59:41;9.50;;;5.50;;
57800;SDS011;43627;42.728;23.256;2023-04-07T12:02:08;9.82;;;5.63;;
57800;SDS011;43627;42.728;23.256;2023-04-07T12:04:35;11.18;;;6.15;;
57800;SDS011;43627;42.728;23.256;2023-04-07T12:07:06;8.73;;;5.68;;
57800;SDS011;43627;42.728;23.256;2023-04-07T12:09:34;8.52;;;4.95;;
57800;SDS011;43627;42.728;23.256;2023-04-07T12:12:02;19.50;;;6.38;;
57800;SDS011;43627;42.728;23.256;2023-04-07T12:14:31;11.07;;;6.53;;
57800;SDS011;43627;42.728;23.256;2023-04-07T12:16:58;10.32;;;6.13;;
57800;SDS011;43627;42.728;23.256;2023-04-07T12:19:28;6.75;;;4.72;;
57800;SDS011;43627;42.728;23.256;2023-04-07T12:21:58;9.95;;;5.57;;
57800;SDS011;43627;42.728;23.256;2023-04-07T12:24:25;9.55;;;5.25;;
57800;SDS011;43627;42.728;23.256;2023-04-07T12:26:52;9.18;;;5.50;;
57800;SDS011;43627;42.728;23.256;2023-04-07T12:29:19;9.45;;;5.47;;
57800;SDS011;43627;42.728;23.256;2023-04-07T12:31:45;9.82;;;5.40;;
57800;SDS011;43627;42.728;23.256;2023-04-07T12:34:16;9.73;;;5.85;;
57800;SDS011;43627;42.728;23.256;2023-04-07T12:36:43;10.32;;;5.25;;
57800;SDS011;43627;42.728;23.256;2023-04-07T12:39:10;8.40;;;5.03;;
57800;SDS011;43627;42.728;23.256;2023-04-07T12:41:37;8.70;;;5.25;;
57800;SDS011;43627;42.728;23.256;2023-04-07T12:44:06;8.40;;;5.57;;
57800;SDS011;43627;42.728;23.256;2023-04-07T12:46:33;12.40;;;6.20;;
57800;SDS011;43627;42.728;23.256;2023-04-07T12:49:00;8.60;;;5.32;;
57800;SDS011;43627;42.728;23.256;2023-04-07T12:51:27;10.05;;;5.78;;
57800;SDS011;43627;42.728;23.256;2023-04-07T12:53:54;8.95;;;5.22;;
57800;SDS011;43627;42.728;23.256;2023-04-07T12:56:20;10.85;;;6.15;;
57800;SDS011;43627;42.728;23.256;2023-04-07T12:58:48;7.47;;;5.43;;
57800;SDS011;43627;42.728;23.256;2023-04-07T13:01:15;11.70;;;5.50;;
57800;SDS011;43627;42.728;23.256;2023-04-07T13:03:42;12.25;;;6.13;;
57800;SDS011;43627;42.728;23.256;2023-04-07T13:06:09;11.77;;;5.32;;
57800;SDS011;43627;42.728;23.256;2023-04-07T13:08:37;12.98;;;5.55;;
57800;SDS011;43627;42.728;23.256;2023-04-07T13:11:04;8.20;;;5.10;;
57800;SDS011;43627;42.728;23.256;2023-04-07T13:13:31;7.88;;;5.00;;
57800;SDS011;43627;42.728;23.256;2023-04-07T13:15:58;8.45;;;5.35;;
57800;SDS011;43627;42.728;23.256;2023-04-07T13:18:25;9.60;;;5.13;;
57800;SDS011;43627;42.728;23.256;2023-04-07T13:20:52;11.65;;;6.40;;
57800;SDS011;43627;42.728;23.256;2023-04-07T13:23:38;7.70;;;5.20;;
57800;SDS011;43627;42.728;23.256;2023-04-07T13:26:09;8.95;;;4.93;;
57800;SDS011;43627;42.728;23.256;2023-04-07T13:28:36;8.95;;;5.30;;
57800;SDS011;43627;42.728;23.256;2023-04-07T13:31:03;13.40;;;5.07;;
57800;SDS011;43627;42.728;23.256;2023-04-07T13:33:30;9.80;;;5.13;;
57800;SDS011;43627;42.728;23.256;2023-04-07T13:35:56;11.05;;;5.13;;
57800;SDS011;43627;42.728;23.256;2023-04-07T13:38:23;9.38;;;5.07;;
57800;SDS011;43627;42.728;23.256;2023-04-07T13:40:50;10.93;;;5.53;;
57800;SDS011;43627;42.728;23.256;2023-04-07T13:43:17;15.20;;;5.78;;
57800;SDS011;43627;42.728;23.256;2023-04-07T13:45:44;9.98;;;5.57;;
57800;SDS011;43627;42.728;23.256;2023-04-07T13:48:12;8.27;;;5.05;;
57800;SDS011;43627;42.728;23.256;2023-04-07T13:50:38;9.90;;;5.60;;
57800;SDS011;43627;42.728;23.256;2023-04-07T13:53:06;9.95;;;5.72;;
57800;SDS011;43627;42.728;23.256;2023-04-07T13:55:32;10.25;;;5.22;;
57800;SDS011;43627;42.728;23.256;2023-04-07T13:57:59;7.68;;;4.78;;
57800;SDS011;43627;42.728;23.256;2023-04-07T14:00:26;11.60;;;5.95;;
57800;SDS011;43627;42.728;23.256;2023-04-07T14:02:53;14.27;;;6.10;;
57800;SDS011;43627;42.728;23.256;2023-04-07T14:05:21;16.83;;;5.72;;
57800;SDS011;43627;42.728;23.256;2023-04-07T14:07:48;9.73;;;5.40;;
57800;SDS011;43627;42.728;23.256;2023-04-07T14:10:16;12.10;;;6.55;;
57800;SDS011;43627;42.728;23.256;2023-04-07T14:12:43;8.77;;;5.82;;
57800;SDS011;43627;42.728;23.256;2023-04-07T14:15:10;11.15;;;5.97;;
57800;SDS011;43627;42.728;23.256;2023-04-07T14:17:37;12.10;;;5.85;;
57800;SDS011;43627;42.728;23.256;2023-04-07T14:20:04;10.98;;;6.32;;
57800;SDS011;43627;42.728;23.256;2023-04-07T14:22:31;13.07;;;6.65;;
57800;SDS011;43627;42.728;23.256;2023-04-07T14:24:58;14.45;;;6.95;;
57800;SDS011;43627;42.728;23.256;2023-04-07T14:27:25;10.10;;;6.15;;
57800;SDS011;43627;42.728;23.256;2023-04-07T14:29:53;10.95;;;5.72;;
57800;SDS011;43627;42.728;23.256;2023-04-07T14:32:21;11.13;;;5.97;;
57800;SDS011;43627;42.728;23.256;2023-04-07T14:34:48;13.50;;;6.72;;
57800;SDS011;43627;42.728;23.256;2023-04-07T14:37:15;9.88;;;6.30;;
57800;SDS011;43627;42.728;23.256;2023-04-07T14:39:43;11.75;;;5.75;;
57800;SDS011;43627;42.728;23.256;2023-04-07T14:42:26;11.82;;;5.28;;
57800;SDS011;43627;42.728;23.256;2023-04-07T14:44:55;16.88;;;8.68;;
57800;SDS011;43627;42.728;23.256;2023-04-07T14:47:22;13.25;;;7.03;;
57800;SDS011;43627;42.728;23.256;2023-04-07T14:49:48;12.50;;;6.43;;
57800;SDS011;43627;42.728;23.256;2023-04-07T14:52:18;11.27;;;6.28;;
57800;SDS011;43627;42.728;23.256;2023-04-07T14:54:47;7.97;;;5.50;;
57800;SDS011;43627;42.728;23.256;2023-04-07T14:57:13;14.77;;;6.28;;
57800;SDS011;43627;42.728;23.256;2023-04-07T14:59:42;8.63;;;6.10;;
57800;SDS011;43627;42.728;23.256;2023-04-07T15:02:08;10.07;;;6.28;;
57800;SDS011;43627;42.728;23.256;2023-04-07T15:04:35;8.82;;;5.75;;